sensor_id;sensor_type;location;lat;lon;timestamp;pressure;altitude;pressure_sealevel;temperature;humidity
59240;BME280;45010;53.640;10.578;2022-08-01T00:00:49;100610.84;;;26.56;47.12
59240;BME280;45010;53.640;10.578;2022-08-01T00:03:49;100614.59;;;26.55;47.45
59240;BME280;45010;53.640;10.578;2022-08-01T00:06:49;100609.25;;;26.55;47.62
59240;BME280;45010;53.640;10.578;2022-08-01T00:09:50;100609.25;;;26.55;47.19
59240;BME280;45010;53.640;10.578;2022-08-01T00:12:50;100609.25;;;26.55;47.55
59240;BME280;45010;53.640;10.578;2022-08-01T00:15:50;100612.97;;;26.54;47.14
59240;BME280;45010;53.640;10.578;2022-08-01T00:18:51;100599.03;;;26.52;47.42
59240;BME280;45010;53.640;10.578;2022-08-01T00:21:52;100605.97;;;26.53;47.56
59240;BME280;45010;53.640;10.578;2022-08-01T00:24:52;100604.38;;;26.52;47.37
59240;BME280;45010;53.640;10.578;2022-08-01T00:27:52;100602.28;;;26.54;47.39
59240;BME280;45010;53.640;10.578;2022-08-01T00:30:54;100595.25;;;26.48;47.02
59240;BME280;45010;53.640;10.578;2022-08-01T00:33:54;100593.59;;;26.46;47.29
59240;BME280;45010;53.640;10.578;2022-08-01T00:36:55;100582.88;;;26.41;47.14
59240;BME280;45010;53.640;10.578;2022-08-01T00:39:55;100599.03;;;26.52;47.35
59240;BME280;45010;53.640;10.578;2022-08-01T00:42:55;100604.38;;;26.52;47.51
59240;BME280;45010;53.640;10.578;2022-08-01T00:45:55;100602.75;;;26.51;47.55
59240;BME280;45010;53.640;10.578;2022-08-01T00:48:57;100606.25;;;26.51;47.07
59240;BME280;45010;53.640;10.578;2022-08-01T00:51:57;100592.88;;;26.51;47.13
59240;BME280;45010;53.640;10.578;2022-08-01T00:54:58;100598.22;;;26.51;47.46
59240;BME280;45010;53.640;10.578;2022-08-01T00:57:58;100592.06;;;26.51;47.52
59240;BME280;45010;53.640;10.578;2022-08-01T01:00:59;100580.13;;;26.36;47.17
59240;BME280;45010;53.640;10.578;2022-08-01T01:04:00;100582.88;;;26.41;47.30
59240;BME280;45010;53.640;10.578;2022-08-01T01:07:19;100583.97;;;26.45;47.49
59240;BME280;45010;53.640;10.578;2022-08-01T01:13:45;100587.78;;;26.50;46.88
59240;BME280;45010;53.640;10.578;2022-08-01T01:16:46;100572.66;;;26.38;47.07
59240;BME280;45010;53.640;10.578;2022-08-01T01:19:51;100588.84;;;26.49;47.25
59240;BME280;45010;53.640;10.578;2022-08-01T01:26:41;100595.25;;;26.48;47.32
59240;BME280;45010;53.640;10.578;2022-08-01T01:29:50;100592.56;;;26.48;47.17
59240;BME280;45010;53.640;10.578;2022-08-01T01:32:52;100568.28;;;26.32;47.15
59240;BME280;45010;53.640;10.578;2022-08-01T01:35:58;100585.28;;;26.43;47.18
59240;BME280;45010;53.640;10.578;2022-08-01T01:39:00;100597.91;;;26.48;47.37
59240;BME280;45010;53.640;10.578;2022-08-01T01:42:01;100595.25;;;26.48;47.08
59240;BME280;45010;53.640;10.578;2022-08-01T01:45:04;100583.66;;;26.42;46.85
59240;BME280;45010;53.640;10.578;2022-08-01T01:48:07;100588.22;;;26.41;47.47
59240;BME280;45010;53.640;10.578;2022-08-01T01:51:09;100584.41;;;26.37;47.08
59240;BME280;45010;53.640;10.578;2022-08-01T01:54:10;100598.94;;;26.46;47.11
59240;BME280;45010;53.640;10.578;2022-08-01T01:57:11;100606.97;;;26.46;47.32
59240;BME280;45010;53.640;10.578;2022-08-01T02:00:13;100604.31;;;26.46;47.41
59240;BME280;45010;53.640;10.578;2022-08-01T02:03:16;100610.72;;;26.45;47.29
59240;BME280;45010;53.640;10.578;2022-08-01T02:06:18;100605.38;;;26.45;47.48
59240;BME280;45010;53.640;10.578;2022-08-01T02:09:20;100597.34;;;26.45;47.16
59240;BME280;45010;53.640;10.578;2022-08-01T02:12:21;100608.03;;;26.45;47.33
59240;BME280;45010;53.640;10.578;2022-08-01T02:15:23;100605.38;;;26.45;47.32
59240;BME280;45010;53.640;10.578;2022-08-01T02:18:25;100611.78;;;26.44;47.36
59240;BME280;45010;53.640;10.578;2022-08-01T02:21:34;100599.47;;;26.43;47.32
59240;BME280;45010;53.640;10.578;2022-08-01T02:27:54;100602.13;;;26.43;46.93
59240;BME280;45010;53.640;10.578;2022-08-01T02:31:01;100606.44;;;26.44;47.29
59240;BME280;45010;53.640;10.578;2022-08-01T02:34:06;100599.38;;;26.38;46.90
59240;BME280;45010;53.640;10.578;2022-08-01T02:37:09;100602.13;;;26.43;47.07
59240;BME280;45010;53.640;10.578;2022-08-01T02:40:10;100607.47;;;26.43;46.91
59240;BME280;45010;53.640;10.578;2022-08-01T02:43:12;100604.00;;;26.43;47.12
59240;BME280;45010;53.640;10.578;2022-08-01T02:46:40;100601.31;;;26.43;47.08
59240;BME280;45010;53.640;10.578;2022-08-01T02:49:45;100597.78;;;26.37;47.03
59240;BME280;45010;53.640;10.578;2022-08-01T02:52:48;100609.59;;;26.41;46.80
59240;BME280;45010;53.640;10.578;2022-08-01T02:55:52;100611.22;;;26.42;46.93
59240;BME280;45010;53.640;10.578;2022-08-01T02:58:53;100618.41;;;26.42;47.07
59240;BME280;45010;53.640;10.578;2022-08-01T03:01:55;100599.91;;;26.35;47.12
59240;BME280;45010;53.640;10.578;2022-08-01T03:04:56;100614.88;;;26.36;46.75
59240;BME280;45010;53.640;10.578;2022-08-01T03:07:58;100622.97;;;26.41;46.59
59240;BME280;45010;53.640;10.578;2022-08-01T03:11:00;100622.97;;;26.41;47.21
59240;BME280;45010;53.640;10.578;2022-08-01T03:14:02;100609.53;;;26.36;46.88
59240;BME280;45010;53.640;10.578;2022-08-01T03:17:06;100617.03;;;26.39;46.81
59240;BME280;45010;53.640;10.578;2022-08-01T03:20:11;100624.81;;;26.41;46.94
59240;BME280;45010;53.640;10.578;2022-08-01T03:23:13;100625.66;;;26.41;46.67
59240;BME280;45010;53.640;10.578;2022-08-01T03:26:16;100629.34;;;26.40;46.81
59240;BME280;45010;53.640;10.578;2022-08-01T03:29:21;100635.53;;;26.41;46.92
59240;BME280;45010;53.640;10.578;2022-08-01T03:32:23;100621.28;;;26.35;46.87
59240;BME280;45010;53.640;10.578;2022-08-01T03:35:34;100634.69;;;26.40;46.60
59240;BME280;45010;53.640;10.578;2022-08-01T03:38:37;100625.00;;;26.34;47.20
59240;BME280;45010;53.640;10.578;2022-08-01T03:41:41;100620.69;;;26.33;46.63
59240;BME280;45010;53.640;10.578;2022-08-01T03:44:48;100638.44;;;26.39;46.62
59240;BME280;45010;53.640;10.578;2022-08-01T03:47:56;100636.81;;;26.38;46.70
59240;BME280;45010;53.640;10.578;2022-08-01T03:50:59;100634.16;;;26.38;46.62
59240;BME280;45010;53.640;10.578;2022-08-01T03:54:00;100641.09;;;26.39;46.95
59240;BME280;45010;53.640;10.578;2022-08-01T03:57:01;100628.72;;;26.33;47.19
59240;BME280;45010;53.640;10.578;2022-08-01T04:00:04;100636.81;;;26.38;47.02
59240;BME280;45010;53.640;10.578;2022-08-01T04:03:08;100643.16;;;26.32;46.74
59240;BME280;45010;53.640;10.578;2022-08-01T04:06:08;100647.53;;;26.38;46.77
59240;BME280;45010;53.640;10.578;2022-08-01T04:09:10;100643.97;;;26.32;47.00
59240;BME280;45010;53.640;10.578;2022-08-01T04:12:12;100661.13;;;26.37;47.18
59240;BME280;45010;53.640;10.578;2022-08-01T04:15:13;100661.38;;;26.35;46.94
59240;BME280;45010;53.640;10.578;2022-08-01T04:18:14;100664.06;;;26.35;47.74
59240;BME280;45010;53.640;10.578;2022-08-01T04:21:17;100671.03;;;26.36;47.64
59240;BME280;45010;53.640;10.578;2022-08-01T04:24:19;100673.44;;;26.38;47.50
59240;BME280;45010;53.640;10.578;2022-08-01T04:27:29;100681.22;;;26.39;47.92
59240;BME280;45010;53.640;10.578;2022-08-01T04:30:33;100680.16;;;26.40;47.89
59240;BME280;45010;53.640;10.578;2022-08-01T04:33:34;100687.72;;;26.43;48.07
59240;BME280;45010;53.640;10.578;2022-08-01T04:36:36;100696.28;;;26.45;47.78
59240;BME280;45010;53.640;10.578;2022-08-01T04:39:39;100691.44;;;26.42;48.08
59240;BME280;45010;53.640;10.578;2022-08-01T04:42:41;100703.59;;;26.50;47.66
59240;BME280;45010;53.640;10.578;2022-08-01T04:45:42;100677.47;;;26.40;47.58
59240;BME280;45010;53.640;10.578;2022-08-01T04:48:44;100700.41;;;26.53;48.02
59240;BME280;45010;53.640;10.578;2022-08-01T04:51:52;100703.41;;;26.57;47.88
59240;BME280;45010;53.640;10.578;2022-08-01T04:54:57;100709.34;;;26.59;47.92
59240;BME280;45010;53.640;10.578;2022-08-01T04:57:57;100709.91;;;26.61;47.71
59240;BME280;45010;53.640;10.578;2022-08-01T05:00:58;100720.09;;;26.64;47.41
59240;BME280;45010;53.640;10.578;2022-08-01T05:03:58;100715.88;;;26.68;47.89
59240;BME280;45010;53.640;10.578;2022-08-01T05:06:58;100700.81;;;26.62;47.36
59240;BME280;45010;53.640;10.578;2022-08-01T05:09:59;100713.28;;;26.73;47.64
59240;BME280;45010;53.640;10.578;2022-08-01T05:13:01;100700.97;;;26.72;47.37
59240;BME280;45010;53.640;10.578;2022-08-01T05:16:02;100717.63;;;26.80;47.34
59240;BME280;45010;53.640;10.578;2022-08-01T05:19:03;100718.78;;;26.84;47.44
59240;BME280;45010;53.640;10.578;2022-08-01T05:22:05;100716.66;;;26.86;47.52
59240;BME280;45010;53.640;10.578;2022-08-01T05:25:06;100717.22;;;26.88;47.46
59240;BME280;45010;53.640;10.578;2022-08-01T05:28:07;100719.44;;;26.91;47.03
59240;BME280;45010;53.640;10.578;2022-08-01T05:31:07;100719.75;;;26.95;47.18
59240;BME280;45010;53.640;10.578;2022-08-01T05:34:07;100719.50;;;26.96;47.43
59240;BME280;45010;53.640;10.578;2022-08-01T05:37:08;100722.50;;;27.00;47.50
59240;BME280;45010;53.640;10.578;2022-08-01T05:40:08;100728.63;;;27.01;47.16
59240;BME280;45010;53.640;10.578;2022-08-01T05:43:09;100722.25;;;27.02;47.65
59240;BME280;45010;53.640;10.578;2022-08-01T05:46:09;100728.16;;;27.04;47.20
59240;BME280;45010;53.640;10.578;2022-08-01T05:49:09;100738.88;;;27.04;47.21
59240;BME280;45010;53.640;10.578;2022-08-01T05:52:10;100744.78;;;27.06;47.10
59240;BME280;45010;53.640;10.578;2022-08-01T05:55:10;100745.34;;;27.08;47.44
59240;BME280;45010;53.640;10.578;2022-08-01T05:58:11;100717.31;;;26.93;47.38
59240;BME280;45010;53.640;10.578;2022-08-01T06:01:11;100741.63;;;27.09;47.65
59240;BME280;45010;53.640;10.578;2022-08-01T06:04:12;100747.53;;;27.11;47.68
59240;BME280;45010;53.640;10.578;2022-08-01T06:07:12;100748.91;;;27.13;47.60
59240;BME280;45010;53.640;10.578;2022-08-01T06:10:12;100749.72;;;27.14;47.21
59240;BME280;45010;53.640;10.578;2022-08-01T06:13:13;100751.31;;;27.15;47.54
59240;BME280;45010;53.640;10.578;2022-08-01T06:16:13;100749.19;;;27.17;47.50
59240;BME280;45010;53.640;10.578;2022-08-01T06:19:13;100758.31;;;27.16;47.08
59240;BME280;45010;53.640;10.578;2022-08-01T06:22:14;100753.50;;;27.18;47.37
59240;BME280;45010;53.640;10.578;2022-08-01T06:25:14;100757.78;;;27.19;47.25
59240;BME280;45010;53.640;10.578;2022-08-01T06:28:14;100764.22;;;27.18;47.54
59240;BME280;45010;53.640;10.578;2022-08-01T06:31:15;100770.13;;;27.20;47.64
59240;BME280;45010;53.640;10.578;2022-08-01T06:34:15;100776.03;;;27.22;47.38
59240;BME280;45010;53.640;10.578;2022-08-01T06:37:15;100772.31;;;27.23;47.66
59240;BME280;45010;53.640;10.578;2022-08-01T06:40:16;100773.91;;;27.24;47.25
59240;BME280;45010;53.640;10.578;2022-08-01T06:43:16;100778.25;;;27.25;47.24
59240;BME280;45010;53.640;10.578;2022-08-01T06:46:18;100779.84;;;27.26;47.44
59240;BME280;45010;53.640;10.578;2022-08-01T06:49:18;100783.09;;;27.29;47.28
59240;BME280;45010;53.640;10.578;2022-08-01T06:52:19;100770.22;;;27.25;47.68
59240;BME280;45010;53.640;10.578;2022-08-01T06:55:19;100786.31;;;27.31;47.47
59240;BME280;45010;53.640;10.578;2022-08-01T06:58:19;100783.41;;;27.32;47.06
59240;BME280;45010;53.640;10.578;2022-08-01T07:01:20;100789.56;;;27.33;47.32
59240;BME280;45010;53.640;10.578;2022-08-01T07:04:20;100786.63;;;27.34;47.41
59240;BME280;45010;53.640;10.578;2022-08-01T07:07:20;100798.97;;;27.35;47.31
59240;BME280;45010;53.640;10.578;2022-08-01T07:10:21;100798.16;;;27.35;47.12
59240;BME280;45010;53.640;10.578;2022-08-01T07:13:21;100791.66;;;27.31;47.22
59240;BME280;45010;53.640;10.578;2022-08-01T07:16:24;100797.69;;;27.38;47.20
59240;BME280;45010;53.640;10.578;2022-08-01T07:19:25;100799.28;;;27.39;46.95
59240;BME280;45010;53.640;10.578;2022-08-01T07:22:25;100796.63;;;27.39;47.03
59240;BME280;45010;53.640;10.578;2022-08-01T07:25:26;100803.59;;;27.40;46.97
59240;BME280;45010;53.640;10.578;2022-08-01T07:28:27;100801.69;;;27.40;47.07
59240;BME280;45010;53.640;10.578;2022-08-01T07:31:27;100810.56;;;27.41;47.05
59240;BME280;45010;53.640;10.578;2022-08-01T07:34:27;100814.84;;;27.42;46.45
59240;BME280;45010;53.640;10.578;2022-08-01T07:37:27;100814.84;;;27.42;46.93
59240;BME280;45010;53.640;10.578;2022-08-01T07:40:28;100815.91;;;27.41;46.77
59240;BME280;45010;53.640;10.578;2022-08-01T07:43:28;100817.47;;;27.37;46.43
59240;BME280;45010;53.640;10.578;2022-08-01T07:46:29;100827.69;;;27.40;47.02
59240;BME280;45010;53.640;10.578;2022-08-01T07:49:30;100809.03;;;27.28;46.87
59240;BME280;45010;53.640;10.578;2022-08-01T07:52:31;100834.66;;;27.41;46.93
59240;BME280;45010;53.640;10.578;2022-08-01T07:55:31;100836.28;;;27.42;46.63
59240;BME280;45010;53.640;10.578;2022-08-01T07:58:33;100843.25;;;27.43;46.58
59240;BME280;45010;53.640;10.578;2022-08-01T08:01:33;100850.25;;;27.44;46.81
59240;BME280;45010;53.640;10.578;2022-08-01T08:04:33;100848.59;;;27.43;46.34
59240;BME280;45010;53.640;10.578;2022-08-01T08:07:34;100855.59;;;27.44;46.61
59240;BME280;45010;53.640;10.578;2022-08-01T08:10:34;100857.22;;;27.45;46.68
59240;BME280;45010;53.640;10.578;2022-08-01T08:13:35;100866.31;;;27.44;46.26
59240;BME280;45010;53.640;10.578;2022-08-01T08:16:35;100864.19;;;27.46;46.23
59240;BME280;45010;53.640;10.578;2022-08-01T08:19:35;100864.19;;;27.46;46.72
59240;BME280;45010;53.640;10.578;2022-08-01T08:22:38;100866.88;;;27.46;46.64
59240;BME280;45010;53.640;10.578;2022-08-01T08:25:39;100872.00;;;27.48;46.52
59240;BME280;45010;53.640;10.578;2022-08-01T08:28:39;100874.91;;;27.46;46.45
59240;BME280;45010;53.640;10.578;2022-08-01T08:31:39;100878.66;;;27.45;46.03
59240;BME280;45010;53.640;10.578;2022-08-01T08:34:40;100881.81;;;27.42;46.19
59240;BME280;45010;53.640;10.578;2022-08-01T08:37:40;100882.88;;;27.41;46.48
59240;BME280;45010;53.640;10.578;2022-08-01T08:40:41;100883.38;;;27.38;45.97
59240;BME280;45010;53.640;10.578;2022-08-01T08:43:41;100881.75;;;27.37;46.15
59240;BME280;45010;53.640;10.578;2022-08-01T08:46:50;100885.47;;;27.36;46.32
59240;BME280;45010;53.640;10.578;2022-08-01T08:49:55;100873.31;;;27.28;45.90
59240;BME280;45010;53.640;10.578;2022-08-01T08:52:59;100885.97;;;27.33;46.08
59240;BME280;45010;53.640;10.578;2022-08-01T08:56:01;100877.31;;;27.25;46.63
59240;BME280;45010;53.640;10.578;2022-08-01T08:59:02;100889.06;;;27.24;46.73
59240;BME280;45010;53.640;10.578;2022-08-01T09:02:03;100899.28;;;27.28;46.85
59240;BME280;45010;53.640;10.578;2022-08-01T09:05:05;100899.28;;;27.28;46.47
59240;BME280;45010;53.640;10.578;2022-08-01T09:08:08;100896.06;;;27.25;46.85
59240;BME280;45010;53.640;10.578;2022-08-01T09:11:08;100919.09;;;27.26;46.83
59240;BME280;45010;53.640;10.578;2022-08-01T09:14:14;100909.38;;;27.20;46.34
59240;BME280;45010;53.640;10.578;2022-08-01T09:17:15;100911.47;;;27.18;47.05
59240;BME280;45010;53.640;10.578;2022-08-01T09:20:23;100918.28;;;27.26;46.73
59240;BME280;45010;53.640;10.578;2022-08-01T09:23:31;100935.16;;;27.26;46.59
59240;BME280;45010;53.640;10.578;2022-08-01T09:26:34;100930.28;;;27.23;46.93
59240;BME280;45010;53.640;10.578;2022-08-01T09:29:34;100938.91;;;27.25;46.48
59240;BME280;45010;53.640;10.578;2022-08-01T09:32:34;100949.63;;;27.25;46.75
59240;BME280;45010;53.640;10.578;2022-08-01T09:35:35;100949.78;;;27.19;46.29
59240;BME280;45010;53.640;10.578;2022-08-01T09:38:37;100959.75;;;27.23;46.43
59240;BME280;45010;53.640;10.578;2022-08-01T09:41:37;100963.25;;;27.24;45.95
59240;BME280;45010;53.640;10.578;2022-08-01T09:44:39;100959.75;;;27.23;46.39
59240;BME280;45010;53.640;10.578;2022-08-01T09:47:40;100971.97;;;27.19;45.91
59240;BME280;45010;53.640;10.578;2022-08-01T09:50:45;100968.50;;;27.19;45.87
59240;BME280;45010;53.640;10.578;2022-08-01T09:53:48;100963.38;;;27.17;46.20
59240;BME280;45010;53.640;10.578;2022-08-01T09:56:48;100978.47;;;27.23;46.14
59240;BME280;45010;53.640;10.578;2022-08-01T09:59:51;100977.84;;;27.16;45.45
59240;BME280;45010;53.640;10.578;2022-08-01T10:02:51;100991.31;;;27.21;45.61
59240;BME280;45010;53.640;10.578;2022-08-01T10:05:52;100990.25;;;27.22;45.96
59240;BME280;45010;53.640;10.578;2022-08-01T10:08:57;100991.31;;;27.21;45.73
59240;BME280;45010;53.640;10.578;2022-08-01T10:11:59;100988.53;;;27.16;45.84
59240;BME280;45010;53.640;10.578;2022-08-01T10:14:59;100991.31;;;27.21;45.49
59240;BME280;45010;53.640;10.578;2022-08-01T10:18:02;100975.56;;;27.08;45.58
59240;BME280;45010;53.640;10.578;2022-08-01T10:21:04;100981.56;;;27.15;45.86
59240;BME280;45010;53.640;10.578;2022-08-01T10:24:05;100988.63;;;27.21;45.86
59240;BME280;45010;53.640;10.578;2022-08-01T10:27:08;100985.88;;;27.16;45.68
59240;BME280;45010;53.640;10.578;2022-08-01T10:30:09;100986.75;;;27.22;45.70
59240;BME280;45010;53.640;10.578;2022-08-01T10:33:10;101002.03;;;27.21;45.32
59240;BME280;45010;53.640;10.578;2022-08-01T10:36:11;101002.03;;;27.21;45.25
59240;BME280;45010;53.640;10.578;2022-08-01T10:39:12;101001.94;;;27.16;45.49
59240;BME280;45010;53.640;10.578;2022-08-01T10:42:12;101002.81;;;27.22;45.06
59240;BME280;45010;53.640;10.578;2022-08-01T10:45:14;100998.28;;;27.22;44.78
59240;BME280;45010;53.640;10.578;2022-08-01T10:48:30;100985.31;;;27.14;45.24
59240;BME280;45010;53.640;10.578;2022-08-01T10:51:35;101005.84;;;27.25;45.50
59240;BME280;45010;53.640;10.578;2022-08-01T10:54:38;100992.94;;;27.22;45.42
59240;BME280;45010;53.640;10.578;2022-08-01T10:57:47;100998.84;;;27.24;45.44
59240;BME280;45010;53.640;10.578;2022-08-01T11:00:47;101006.50;;;27.33;45.30
59240;BME280;45010;53.640;10.578;2022-08-01T11:07:10;100997.88;;;27.31;45.01
59240;BME280;45010;53.640;10.578;2022-08-01T11:10:22;101003.91;;;27.38;44.80
59240;BME280;45010;53.640;10.578;2022-08-01T11:20:59;101002.03;;;27.38;44.46
59240;BME280;45010;53.640;10.578;2022-08-01T11:23:59;101012.59;;;27.45;44.44
59240;BME280;45010;53.640;10.578;2022-08-01T11:33:18;101008.34;;;27.49;44.36
59240;BME280;45010;53.640;10.578;2022-08-01T11:36:18;101004.63;;;27.50;44.42
59240;BME280;45010;53.640;10.578;2022-08-01T11:39:23;100995.53;;;27.51;43.81
59240;BME280;45010;53.640;10.578;2022-08-01T11:42:23;101004.13;;;27.53;43.66
59240;BME280;45010;53.640;10.578;2022-08-01T11:46:01;101003.81;;;27.50;43.92
59240;BME280;45010;53.640;10.578;2022-08-01T11:52:28;101012.16;;;27.53;43.30
59240;BME280;45010;53.640;10.578;2022-08-01T11:55:29;101007.63;;;27.54;42.96
59240;BME280;45010;53.640;10.578;2022-08-01T11:58:30;101004.13;;;27.53;43.40
59240;BME280;45010;53.640;10.578;2022-08-01T12:01:30;101002.28;;;27.54;42.97
59240;BME280;45010;53.640;10.578;2022-08-01T12:04:53;100997.63;;;27.49;43.00
59240;BME280;45010;53.640;10.578;2022-08-01T12:07:55;101002.97;;;27.49;42.72
59240;BME280;45010;53.640;10.578;2022-08-01T12:10:56;101014.84;;;27.53;42.85
59240;BME280;45010;53.640;10.578;2022-08-01T12:13:56;101009.47;;;27.53;42.68
59240;BME280;45010;53.640;10.578;2022-08-01T12:16:57;101001.88;;;27.45;42.70
59240;BME280;45010;53.640;10.578;2022-08-01T12:19:57;101014.84;;;27.53;42.52
59240;BME280;45010;53.640;10.578;2022-08-01T12:23:00;101013.78;;;27.55;42.68
59240;BME280;45010;53.640;10.578;2022-08-01T12:26:00;101023.44;;;27.56;42.40
59240;BME280;45010;53.640;10.578;2022-08-01T12:29:01;101021.81;;;27.55;42.25
59240;BME280;45010;53.640;10.578;2022-08-01T12:32:02;101025.31;;;27.55;42.61
59240;BME280;45010;53.640;10.578;2022-08-01T12:38:17;101009.66;;;27.47;42.10
59240;BME280;45010;53.640;10.578;2022-08-01T12:41:17;101027.19;;;27.55;42.46
59240;BME280;45010;53.640;10.578;2022-08-01T12:44:18;101026.38;;;27.54;42.49
59240;BME280;45010;53.640;10.578;2022-08-01T12:47:20;101028.22;;;27.53;42.48
59240;BME280;45010;53.640;10.578;2022-08-01T12:50:22;101015.59;;;27.49;42.20
59240;BME280;45010;53.640;10.578;2022-08-01T12:53:23;101032.53;;;27.55;42.23
59240;BME280;45010;53.640;10.578;2022-08-01T12:56:33;101019.06;;;27.49;41.55
59240;BME280;45010;53.640;10.578;2022-08-01T12:59:34;101027.19;;;27.55;41.68
59240;BME280;45010;53.640;10.578;2022-08-01T13:02:34;101007.53;;;27.49;41.72
59240;BME280;45010;53.640;10.578;2022-08-01T13:05:42;101021.81;;;27.55;42.02
59240;BME280;45010;53.640;10.578;2022-08-01T13:08:43;101024.50;;;27.55;41.34
59240;BME280;45010;53.640;10.578;2022-08-01T13:11:43;101017.75;;;27.52;41.71
59240;BME280;45010;53.640;10.578;2022-08-01T13:14:44;101023.94;;;27.52;41.15
59240;BME280;45010;53.640;10.578;2022-08-01T13:17:44;101023.94;;;27.52;41.56
59240;BME280;45010;53.640;10.578;2022-08-01T13:20:44;101022.09;;;27.53;41.72
59240;BME280;45010;53.640;10.578;2022-08-01T13:27:03;101012.41;;;27.52;41.46
59240;BME280;45010;53.640;10.578;2022-08-01T13:30:30;101017.75;;;27.52;41.65
59240;BME280;45010;53.640;10.578;2022-08-01T13:33:45;101002.19;;;27.49;41.99
59240;BME280;45010;53.640;10.578;2022-08-01T13:36:46;101010.31;;;27.54;41.68
59240;BME280;45010;53.640;10.578;2022-08-01T13:39:46;101019.41;;;27.53;41.21
59240;BME280;45010;53.640;10.578;2022-08-01T13:42:47;101013.22;;;27.52;40.33
59240;BME280;45010;53.640;10.578;2022-08-01T13:45:48;101008.34;;;27.49;39.93
59240;BME280;45010;53.640;10.578;2022-08-01T13:48:48;101016.97;;;27.51;40.03
59240;BME280;45010;53.640;10.578;2022-08-01T13:51:48;101010.78;;;27.51;40.47
59240;BME280;45010;53.640;10.578;2022-08-01T13:54:50;101022.31;;;27.51;39.91
59240;BME280;45010;53.640;10.578;2022-08-01T13:57:50;101024.19;;;27.51;40.06
59240;BME280;45010;53.640;10.578;2022-08-01T14:00:51;101018.03;;;27.50;40.02
59240;BME280;45010;53.640;10.578;2022-08-01T14:03:51;101020.69;;;27.50;39.63
59240;BME280;45010;53.640;10.578;2022-08-01T14:06:51;101024.41;;;27.49;39.39
59240;BME280;45010;53.640;10.578;2022-08-01T14:09:52;101029.78;;;27.49;38.72
59240;BME280;45010;53.640;10.578;2022-08-01T14:12:52;101029.78;;;27.49;38.50
59240;BME280;45010;53.640;10.578;2022-08-01T14:15:52;101022.72;;;27.43;38.69
59240;BME280;45010;53.640;10.578;2022-08-01T14:18:53;101038.06;;;27.48;38.37
59240;BME280;45010;53.640;10.578;2022-08-01T14:21:53;101037.25;;;27.47;38.21
59240;BME280;45010;53.640;10.578;2022-08-01T14:24:53;101031.66;;;27.49;38.21
59240;BME280;45010;53.640;10.578;2022-08-01T14:27:54;101038.88;;;27.48;38.56
59240;BME280;45010;53.640;10.578;2022-08-01T14:30:55;101015.59;;;27.32;38.21
59240;BME280;45010;53.640;10.578;2022-08-01T14:33:55;101036.19;;;27.48;37.79
59240;BME280;45010;53.640;10.578;2022-08-01T14:36:56;101048.78;;;27.48;38.30
59240;BME280;45010;53.640;10.578;2022-08-01T14:40:00;101050.63;;;27.47;38.00
59240;BME280;45010;53.640;10.578;2022-08-01T14:43:04;101053.31;;;27.47;37.82
59240;BME280;45010;53.640;10.578;2022-08-01T14:46:05;101047.97;;;27.47;37.37
59240;BME280;45010;53.640;10.578;2022-08-01T14:49:05;101052.53;;;27.47;37.20
59240;BME280;45010;53.640;10.578;2022-08-01T14:52:06;101034.97;;;27.39;37.12
59240;BME280;45010;53.640;10.578;2022-08-01T14:55:08;101040.34;;;27.39;37.10
59240;BME280;45010;53.640;10.578;2022-08-01T14:58:08;101056.00;;;27.47;37.66
59240;BME280;45010;53.640;10.578;2022-08-01T15:01:09;101052.53;;;27.47;37.44
59240;BME280;45010;53.640;10.578;2022-08-01T15:04:09;101060.28;;;27.48;37.57
59240;BME280;45010;53.640;10.578;2022-08-01T15:07:10;101029.78;;;27.32;37.05
59240;BME280;45010;53.640;10.578;2022-08-01T15:10:10;101059.50;;;27.48;37.45
59240;BME280;45010;53.640;10.578;2022-08-01T15:13:11;101056.56;;;27.49;37.79
59240;BME280;45010;53.640;10.578;2022-08-01T15:16:11;101066.81;;;27.52;37.31
59240;BME280;45010;53.640;10.578;2022-08-01T15:19:11;101061.44;;;27.52;37.16
59240;BME280;45010;53.640;10.578;2022-08-01T15:22:12;101057.72;;;27.53;37.38
59240;BME280;45010;53.640;10.578;2022-08-01T15:25:12;101059.31;;;27.55;37.49
59240;BME280;45010;53.640;10.578;2022-08-01T15:28:13;101060.16;;;27.55;37.46
59240;BME280;45010;53.640;10.578;2022-08-01T15:31:13;101058.88;;;27.58;37.23
59240;BME280;45010;53.640;10.578;2022-08-01T15:34:14;101065.03;;;27.58;37.50
59240;BME280;45010;53.640;10.578;2022-08-01T15:37:14;101066.31;;;27.56;37.28
59240;BME280;45010;53.640;10.578;2022-08-01T15:40:15;101075.28;;;27.61;37.14
59240;BME280;45010;53.640;10.578;2022-08-01T15:43:15;101072.38;;;27.63;36.68
59240;BME280;45010;53.640;10.578;2022-08-01T15:46:16;101073.97;;;27.64;36.74
59240;BME280;45010;53.640;10.578;2022-08-01T15:49:17;101075.59;;;27.65;36.64
59240;BME280;45010;53.640;10.578;2022-08-01T15:52:17;101077.22;;;27.66;36.22
59240;BME280;45010;53.640;10.578;2022-08-01T15:55:17;101071.84;;;27.66;36.31
59240;BME280;45010;53.640;10.578;2022-08-01T15:58:18;101080.22;;;27.70;36.03
59240;BME280;45010;53.640;10.578;2022-08-01T16:01:18;101079.16;;;27.71;36.24
59240;BME280;45010;53.640;10.578;2022-08-01T16:04:19;101077.88;;;27.73;35.92
59240;BME280;45010;53.640;10.578;2022-08-01T16:07:20;101078.69;;;27.74;35.61
59240;BME280;45010;53.640;10.578;2022-08-01T16:10:20;101084.88;;;27.74;35.60
59240;BME280;45010;53.640;10.578;2022-08-01T16:13:20;101078.44;;;27.75;35.33
59240;BME280;45010;53.640;10.578;2022-08-01T16:16:22;101084.38;;;27.77;34.66